Time;durP1;ratioP1;P1;durP2;ratioP2;P2;SDS_P1;SDS_P2;PMS_P1;PMS_P2;Temp;Humidity;BMP_temperature;BMP_pressure;BME280_temperature;BME280_humidity;BME280_pressure;Samples;Min_cycle;Max_cycle;Signal;HPM_P1;HPM_P2
2023/06/29 00:01:00;;;;;;;57.65;52.03;;;18.00;99.90;;;;;;4937580;29;20433;-76
2023/06/29 00:03:25;;;;;;;67.35;60.65;;;18.00;99.90;;;;;;4952895;29;20043;-75
2023/06/29 00:05:55;;;;;;;57.08;51.78;;;18.00;99.90;;;;;;4953074;29;20126;-75
2023/06/29 00:08:29;;;;;;;63.15;57.13;;;18.00;99.90;;;;;;4952397;29;20043;-75
2023/06/29 00:10:56;;;;;;;65.40;58.95;;;18.00;99.90;;;;;;4952926;28;20409;-75
2023/06/29 00:13:22;;;;;;;62.75;56.67;;;18.00;99.90;;;;;;4964267;28;20102;-75
2023/06/29 00:15:49;;;;;;;63.15;57.10;;;18.00;99.90;;;;;;4940124;28;20077;-75
2023/06/29 00:18:15;;;;;;;60.22;54.47;;;17.90;99.90;;;;;;4931702;29;20062;-75
2023/06/29 00:20:42;;;;;;;66.43;59.88;;;17.90;99.90;;;;;;4922006;29;20499;-75
2023/06/29 00:23:08;;;;;;;66.00;59.65;;;17.90;99.90;;;;;;4939691;28;20039;-75
2023/06/29 00:25:34;;;;;;;61.50;55.42;;;18.00;99.90;;;;;;4955800;28;20038;-76
2023/06/29 00:28:00;;;;;;;62.13;55.83;;;17.90;99.90;;;;;;4957050;28;20039;-76
2023/06/29 00:30:25;;;;;;;61.15;54.95;;;17.90;99.90;;;;;;4947449;28;20039;-76
2023/06/29 00:32:51;;;;;;;60.42;54.63;;;17.90;99.90;;;;;;4956061;28;20654;-76
2023/06/29 00:35:17;;;;;;;63.97;57.72;;;17.90;99.90;;;;;;4957625;28;20065;-75
2023/06/29 00:37:42;;;;;;;60.70;54.97;;;17.90;99.90;;;;;;4962175;28;20037;-76
2023/06/29 00:40:09;;;;;;;61.75;55.67;;;17.90;99.90;;;;;;4955881;28;20123;-75
2023/06/29 00:42:35;;;;;;;65.05;58.63;;;17.90;99.90;;;;;;4940098;28;20046;-76
2023/06/29 00:45:02;;;;;;;61.72;55.80;;;17.90;99.90;;;;;;4939853;28;20506;-75
2023/06/29 00:47:29;;;;;;;62.40;56.25;;;17.90;99.90;;;;;;4954516;28;20054;-76
2023/06/29 00:49:55;;;;;;;66.30;59.65;;;17.90;99.90;;;;;;4939480;28;20130;-75
2023/06/29 00:52:22;;;;;;;60.55;54.75;;;17.90;99.90;;;;;;4949275;28;20501;-75
2023/06/29 00:54:48;;;;;;;65.70;59.55;;;17.90;99.90;;;;;;4961517;28;20073;-75
2023/06/29 00:57:14;;;;;;;59.33;53.47;;;17.80;99.90;;;;;;4939550;28;20070;-76
2023/06/29 00:59:39;;;;;;;64.13;57.95;;;17.80;99.90;;;;;;4939352;28;20121;-75
2023/06/29 01:02:07;;;;;;;61.75;55.85;;;17.80;99.90;;;;;;4932863;29;20082;-76
2023/06/29 01:04:36;;;;;;;59.17;53.63;;;17.90;99.90;;;;;;4941122;29;20544;-76
2023/06/29 01:07:11;;;;;;;62.38;56.20;;;17.80;99.90;;;;;;4959711;28;20121;-76
2023/06/29 01:09:38;;;;;;;60.03;54.38;;;17.80;99.90;;;;;;4939095;28;20039;-76
2023/06/29 01:12:04;;;;;;;61.17;54.97;;;17.80;99.90;;;;;;4939459;28;20043;-75
2023/06/29 01:14:33;;;;;;;61.80;55.83;;;17.90;99.90;;;;;;4939620;28;20043;-75
2023/06/29 01:16:59;;;;;;;62.58;56.47;;;17.80;99.90;;;;;;4949612;28;20035;-75
2023/06/29 01:19:28;;;;;;;61.85;55.92;;;17.80;99.90;;;;;;4948888;28;20142;-75
2023/06/29 01:22:10;;;;;;;63.72;57.42;;;17.80;99.90;;;;;;4961827;28;20057;-75
2023/06/29 01:24:42;;;;;;;63.33;57.25;;;17.80;99.90;;;;;;4950928;28;20564;-75
2023/06/29 01:27:09;;;;;;;64.25;57.95;;;17.80;99.90;;;;;;4959179;28;20043;-75
2023/06/29 01:29:35;;;;;;;62.20;55.97;;;17.80;99.90;;;;;;4958689;28;20493;-75
2023/06/29 01:32:03;;;;;;;63.53;57.42;;;17.80;99.90;;;;;;4954801;29;20039;-75
2023/06/29 01:34:30;;;;;;;64.15;57.75;;;17.80;99.90;;;;;;4959181;28;20125;-76
2023/06/29 01:37:02;;;;;;;61.53;55.45;;;17.80;99.90;;;;;;4959220;28;20142;-75
2023/06/29 01:39:31;;;;;;;60.90;55.28;;;17.80;99.90;;;;;;4942745;28;20069;-75
2023/06/29 01:41:58;;;;;;;60.08;54.13;;;17.80;99.90;;;;;;4948998;28;20072;-75
2023/06/29 01:44:24;;;;;;;65.30;59.10;;;17.70;99.90;;;;;;4962286;28;20133;-75
2023/06/29 01:46:52;;;;;;;67.68;60.75;;;17.70;99.90;;;;;;4963984;28;20135;-75
2023/06/29 01:49:18;;;;;;;64.60;58.35;;;17.70;99.90;;;;;;4945978;28;20646;-75
2023/06/29 01:51:43;;;;;;;63.58;57.40;;;17.70;99.90;;;;;;4958729;28;20043;-76
2023/06/29 01:54:09;;;;;;;65.28;58.92;;;17.70;99.90;;;;;;4951383;29;20031;-75
2023/06/29 01:56:35;;;;;;;64.60;58.30;;;17.70;99.90;;;;;;4940685;28;20034;-76
2023/06/29 01:59:01;;;;;;;62.50;56.53;;;17.70;99.90;;;;;;4970611;28;20034;-75
2023/06/29 02:01:28;;;;;;;62.80;56.63;;;17.70;99.90;;;;;;4939455;29;20048;-75
2023/06/29 02:03:54;;;;;;;64.97;58.92;;;17.70;99.90;;;;;;4939601;29;20039;-75
2023/06/29 02:06:19;;;;;;;65.20;58.88;;;17.70;99.90;;;;;;4939277;29;20039;-75
2023/06/29 02:08:45;;;;;;;64.97;58.63;;;17.70;99.90;;;;;;4952345;28;20042;-75
2023/06/29 02:11:11;;;;;;;59.10;53.50;;;17.70;99.90;;;;;;4941992;28;20520;-75
2023/06/29 02:13:36;;;;;;;63.15;56.97;;;17.70;99.90;;;;;;4957149;28;20042;-75
2023/06/29 02:16:02;;;;;;;63.58;57.30;;;17.70;99.90;;;;;;4942496;28;20263;-75
2023/06/29 02:18:28;;;;;;;65.10;58.70;;;17.70;99.90;;;;;;4942450;28;20125;-76
2023/06/29 02:20:54;;;;;;;62.70;56.70;;;17.80;99.90;;;;;;4958233;28;20154;-76
2023/06/29 02:23:19;;;;;;;66.60;59.92;;;17.70;99.90;;;;;;4946213;28;20043;-75
2023/06/29 02:25:45;;;;;;;70.68;63.45;;;17.70;99.90;;;;;;4957303;28;20053;-75
2023/06/29 02:28:10;;;;;;;64.13;58.08;;;17.70;99.90;;;;;;4941642;28;20122;-76
2023/06/29 02:30:36;;;;;;;63.08;57.03;;;17.70;99.90;;;;;;4957363;28;20386;-75
2023/06/29 02:33:02;;;;;;;68.28;61.75;;;17.70;99.90;;;;;;4968673;28;20038;-76
2023/06/29 02:35:28;;;;;;;64.65;58.50;;;17.70;99.90;;;;;;4956828;28;20102;-76
2023/06/29 02:37:53;;;;;;;70.40;62.90;;;17.70;99.90;;;;;;4957702;28;20497;-76
2023/06/29 02:40:19;;;;;;;70.65;63.22;;;17.70;99.90;;;;;;4959619;28;20093;-75
2023/06/29 02:42:44;;;;;;;74.65;66.72;;;17.70;99.90;;;;;;4977449;28;20046;-76
2023/06/29 02:45:10;;;;;;;63.58;57.45;;;17.70;99.90;;;;;;4959560;28;20046;-76
2023/06/29 02:47:36;;;;;;;63.92;58.00;;;17.70;99.90;;;;;;4956004;28;20051;-76
2023/06/29 02:50:01;;;;;;;62.13;56.30;;;17.70;99.90;;;;;;4940963;29;20383;-76
2023/06/29 02:52:27;;;;;;;66.78;60.13;;;17.70;99.90;;;;;;4957164;28;20039;-76
2023/06/29 02:54:53;;;;;;;64.32;57.95;;;17.70;99.90;;;;;;4941759;28;20600;-76
2023/06/29 02:57:18;;;;;;;67.72;61.03;;;17.70;99.90;;;;;;4957162;28;20042;-76
2023/06/29 02:59:44;;;;;;;65.45;59.22;;;17.70;99.90;;;;;;4957569;28;20039;-76
2023/06/29 03:02:09;;;;;;;66.50;59.95;;;17.70;99.90;;;;;;4949611;28;20047;-76
2023/06/29 03:04:35;;;;;;;66.80;60.25;;;17.70;99.90;;;;;;4963000;28;20089;-76
2023/06/29 03:07:00;;;;;;;65.07;58.55;;;17.70;99.90;;;;;;4955696;28;20062;-76
2023/06/29 03:09:26;;;;;;;66.47;60.03;;;17.70;99.90;;;;;;4957303;28;20031;-76
2023/06/29 03:11:52;;;;;;;72.40;65.35;;;17.70;99.90;;;;;;4955710;28;20079;-75
2023/06/29 03:14:17;;;;;;;69.85;62.85;;;17.70;99.90;;;;;;4965107;28;20027;-75
2023/06/29 03:16:43;;;;;;;67.25;60.53;;;17.70;99.90;;;;;;4961305;28;20035;-76
2023/06/29 03:19:08;;;;;;;67.38;60.65;;;17.80;99.90;;;;;;4956599;28;20043;-76
2023/06/29 03:21:34;;;;;;;72.10;64.78;;;17.70;99.90;;;;;;4957261;28;20125;-76
2023/06/29 03:24:00;;;;;;;68.82;62.30;;;17.70;99.90;;;;;;4941170;28;20070;-75
2023/06/29 03:26:25;;;;;;;72.57;65.40;;;17.70;99.90;;;;;;4952545;28;20039;-76
2023/06/29 03:28:51;;;;;;;68.40;61.85;;;17.70;99.90;;;;;;4956728;28;20429;-76
2023/06/29 03:31:17;;;;;;;66.47;60.17;;;17.70;99.90;;;;;;4956348;28;20505;-76
2023/06/29 03:33:43;;;;;;;69.05;62.20;;;17.80;99.90;;;;;;4957077;28;20073;-76
2023/06/29 03:36:11;;;;;;;67.18;60.70;;;17.80;99.90;;;;;;4953946;28;20472;-76
2023/06/29 03:38:36;;;;;;;71.75;64.68;;;17.70;99.90;;;;;;4956322;28;20039;-76
2023/06/29 03:41:02;;;;;;;72.75;65.28;;;17.80;99.90;;;;;;4956953;28;20039;-76
2023/06/29 03:43:28;;;;;;;70.20;62.97;;;17.80;99.90;;;;;;4963977;28;20121;-76
2023/06/29 03:45:53;;;;;;;71.22;64.13;;;17.80;99.90;;;;;;4945665;28;20043;-76
2023/06/29 03:48:21;;;;;;;70.68;63.72;;;17.80;99.90;;;;;;4956608;28;20081;-76
2023/06/29 03:50:47;;;;;;;70.50;63.50;;;17.90;99.90;;;;;;4956567;28;20046;-76
2023/06/29 03:53:13;;;;;;;73.00;65.72;;;17.90;99.90;;;;;;4955959;28;20409;-76
2023/06/29 03:55:38;;;;;;;67.10;60.45;;;17.90;99.90;;;;;;4961837;28;20047;-76
2023/06/29 03:58:04;;;;;;;71.47;64.45;;;18.00;99.90;;;;;;4956349;28;20043;-76
2023/06/29 04:00:30;;;;;;;69.18;62.47;;;18.10;99.90;;;;;;4955735;28;20043;-76
2023/06/29 04:02:55;;;;;;;70.47;63.45;;;18.00;99.90;;;;;;4939891;28;20039;-76
2023/06/29 04:05:21;;;;;;;71.53;64.20;;;18.10;99.90;;;;;;4954580;28;20125;-76
2023/06/29 04:07:46;;;;;;;63.13;56.92;;;18.10;99.90;;;;;;4961518;28;20042;-76
2023/06/29 04:10:12;;;;;;;65.03;58.95;;;18.10;99.90;;;;;;4958685;28;20489;-76
2023/06/29 04:12:38;;;;;;;66.63;60.10;;;18.20;99.90;;;;;;4953053;28;20038;-76
2023/06/29 04:15:04;;;;;;;65.22;58.90;;;18.20;99.90;;;;;;4953948;28;20081;-76
2023/06/29 04:17:30;;;;;;;73.50;65.72;;;18.20;99.90;;;;;;4931962;28;20054;-76
2023/06/29 04:19:55;;;;;;;66.70;60.38;;;18.20;99.90;;;;;;4970868;28;20046;-76
2023/06/29 04:22:21;;;;;;;62.25;56.25;;;18.20;99.90;;;;;;4969650;28;20506;-76
2023/06/29 04:24:46;;;;;;;66.15;59.38;;;18.30;99.90;;;;;;4967341;28;20038;-76
2023/06/29 04:50:31;;;;;;;56.95;51.38;;;18.80;99.90;;;;;;4979307;28;20718;-76
2023/06/29 04:53:08;;;;;;;59.03;53.35;;;18.80;99.90;;;;;;4972161;28;20047;-76
2023/06/29 04:55:35;;;;;;;58.08;52.58;;;18.90;99.90;;;;;;4952071;28;20047;-76
2023/06/29 04:58:01;;;;;;;59.72;53.58;;;18.90;99.90;;;;;;4954886;28;20037;-76
2023/06/29 05:00:27;;;;;;;57.92;52.40;;;19.00;99.90;;;;;;4946362;28;20467;-76
2023/06/29 05:02:52;;;;;;;56.55;51.38;;;19.00;99.90;;;;;;4943804;28;20043;-77
2023/06/29 05:05:18;;;;;;;57.70;52.40;;;19.10;99.90;;;;;;4972215;28;20034;-76
2023/06/29 05:07:44;;;;;;;60.92;55.22;;;19.20;99.90;;;;;;4974627;28;20412;-76
2023/06/29 05:10:09;;;;;;;56.90;51.65;;;19.20;99.90;;;;;;4958587;28;20038;-76
2023/06/29 05:12:35;;;;;;;59.40;53.75;;;19.20;99.90;;;;;;4948370;28;20039;-76
2023/06/29 05:15:01;;;;;;;54.88;49.65;;;19.20;99.90;;;;;;4952408;28;20121;-75
2023/06/29 05:17:27;;;;;;;54.92;49.58;;;19.30;99.90;;;;;;4957122;28;20042;-76
2023/06/29 05:19:53;;;;;;;55.08;49.67;;;19.30;99.90;;;;;;4943780;28;20513;-75
2023/06/29 05:22:18;;;;;;;53.55;48.30;;;19.30;99.90;;;;;;4951725;28;20078;-75
2023/06/29 05:24:45;;;;;;;54.67;49.60;;;19.30;99.90;;;;;;4939941;28;20035;-75
2023/06/29 05:27:11;;;;;;;50.47;45.78;;;19.40;99.90;;;;;;4968261;28;20081;-75
2023/06/29 05:29:37;;;;;;;55.67;50.53;;;19.40;99.90;;;;;;4950659;28;20085;-75
2023/06/29 05:32:04;;;;;;;52.33;47.33;;;19.40;99.90;;;;;;4962804;28;20046;-74
2023/06/29 05:34:30;;;;;;;51.05;46.25;;;19.40;99.90;;;;;;4957199;28;20053;-75
2023/06/29 05:36:55;;;;;;;51.78;46.72;;;19.40;99.90;;;;;;4954937;28;20082;-75
2023/06/29 05:39:21;;;;;;;51.50;46.78;;;19.30;99.90;;;;;;4939133;28;20082;-75
2023/06/29 05:41:48;;;;;;;49.30;44.63;;;19.40;99.90;;;;;;4967676;28;20054;-75
2023/06/29 05:44:13;;;;;;;51.65;46.92;;;19.40;99.90;;;;;;4974718;28;20046;-75
2023/06/29 05:46:39;;;;;;;54.05;48.35;;;19.40;99.90;;;;;;4974197;28;20046;-75
2023/06/29 05:49:05;;;;;;;55.72;49.88;;;19.50;99.90;;;;;;4945524;28;20039;-76
2023/06/29 05:51:32;;;;;;;51.75;46.92;;;19.40;99.90;;;;;;4940538;28;20042;-75
2023/06/29 05:53:58;;;;;;;53.58;48.40;;;19.40;99.90;;;;;;4950369;28;20046;-75
2023/06/29 05:56:23;;;;;;;52.00;46.78;;;19.40;99.90;;;;;;4957405;28;20034;-76
2023/06/29 05:58:49;;;;;;;53.65;48.25;;;19.40;99.90;;;;;;4966712;28;20482;-76
2023/06/29 06:01:15;;;;;;;49.17;44.42;;;19.40;99.90;;;;;;4959490;28;20126;-76
2023/06/29 06:03:40;;;;;;;51.00;45.88;;;19.30;99.90;;;;;;4951368;28;20053;-76
2023/06/29 06:06:06;;;;;;;49.60;44.60;;;19.30;99.90;;;;;;4949919;28;20047;-77
2023/06/29 06:08:32;;;;;;;53.17;47.72;;;19.30;99.90;;;;;;4946218;28;20523;-76
2023/06/29 06:10:58;;;;;;;52.22;47.17;;;19.20;99.90;;;;;;4942622;28;20041;-76
2023/06/29 06:13:24;;;;;;;54.05;48.88;;;19.20;99.90;;;;;;4966029;28;20409;-76
2023/06/29 06:15:49;;;;;;;52.65;47.45;;;19.20;99.90;;;;;;4960635;28;20047;-76
2023/06/29 06:18:15;;;;;;;51.80;46.92;;;19.20;99.90;;;;;;4951397;28;20498;-76
2023/06/29 06:20:41;;;;;;;52.90;47.70;;;19.20;99.90;;;;;;4956934;28;20041;-76
2023/06/29 06:23:06;;;;;;;53.45;48.45;;;19.20;99.90;;;;;;4964913;28;20046;-76
2023/06/29 06:25:32;;;;;;;51.75;46.78;;;19.20;99.90;;;;;;4962800;28;20049;-76
2023/06/29 06:27:57;;;;;;;52.15;46.90;;;19.20;99.90;;;;;;4961427;28;20034;-76
2023/06/29 06:30:23;;;;;;;52.95;47.65;;;19.20;99.90;;;;;;4977397;28;20038;-76
2023/06/29 06:32:50;;;;;;;56.30;50.70;;;19.20;99.90;;;;;;4977743;28;20053;-76
2023/06/29 06:35:16;;;;;;;54.97;49.38;;;19.20;99.90;;;;;;4968445;28;20501;-76
2023/06/29 06:37:42;;;;;;;55.20;49.50;;;19.20;99.90;;;;;;4958606;28;20038;-76
2023/06/29 06:40:11;;;;;;;57.83;51.75;;;19.20;99.90;;;;;;4975876;28;20069;-76
2023/06/29 06:42:37;;;;;;;58.42;52.53;;;19.20;99.90;;;;;;4946894;28;20046;-76
2023/06/29 06:45:03;;;;;;;57.13;51.25;;;19.30;99.90;;;;;;4977361;28;20042;-76
2023/06/29 06:47:33;;;;;;;53.15;47.85;;;19.30;99.90;;;;;;4977051;28;20173;-76
2023/06/29 06:49:59;;;;;;;57.45;51.78;;;19.30;99.90;;;;;;4957349;28;20038;-76
2023/06/29 06:52:25;;;;;;;59.35;53.50;;;19.40;99.90;;;;;;4973985;28;20120;-76
2023/06/29 06:54:51;;;;;;;59.58;53.33;;;19.40;99.90;;;;;;4976967;28;20496;-76
2023/06/29 06:57:18;;;;;;;55.72;50.20;;;19.50;99.90;;;;;;4976913;28;20045;-76
2023/06/29 06:59:44;;;;;;;58.75;52.90;;;19.50;99.90;;;;;;4977176;28;20046;-76
2023/06/29 07:02:10;;;;;;;58.80;53.15;;;19.60;99.90;;;;;;4974039;28;20048;-76
2023/06/29 07:04:35;;;;;;;58.20;52.67;;;19.70;99.90;;;;;;4976895;28;20411;-76
2023/06/29 07:07:01;;;;;;;60.65;54.60;;;19.80;99.90;;;;;;4976848;28;20049;-76
2023/06/29 07:09:27;;;;;;;60.08;54.15;;;19.90;99.90;;;;;;4976876;28;20501;-76
2023/06/29 07:11:52;;;;;;;58.85;52.95;;;20.10;99.90;;;;;;4976856;28;20038;-76
2023/06/29 07:14:18;;;;;;;58.08;52.53;;;20.10;99.90;;;;;;4975049;28;20093;-76
2023/06/29 07:16:44;;;;;;;60.67;54.75;;;20.20;99.90;;;;;;4976415;28;20030;-76
2023/06/29 07:19:14;;;;;;;60.33;54.42;;;20.20;99.90;;;;;;4976304;28;20089;-76
2023/06/29 07:21:40;;;;;;;62.22;56.45;;;20.20;99.90;;;;;;4976640;28;20056;-76
2023/06/29 07:24:07;;;;;;;58.78;53.17;;;20.20;99.90;;;;;;4976547;28;20038;-76
2023/06/29 07:26:33;;;;;;;59.10;53.47;;;20.30;99.90;;;;;;4966990;28;20080;-76
2023/06/29 07:28:59;;;;;;;59.35;53.58;;;20.30;99.90;;;;;;4955958;28;20030;-76
2023/06/29 07:31:29;;;;;;;58.25;52.72;;;20.20;99.90;;;;;;4976256;28;20048;-76
2023/06/29 07:33:55;;;;;;;56.72;51.33;;;20.20;99.90;;;;;;4976425;28;20050;-76
2023/06/29 07:36:22;;;;;;;55.30;50.03;;;20.30;99.90;;;;;;4976368;28;20080;-76
2023/06/29 07:38:48;;;;;;;59.03;53.13;;;20.30;99.90;;;;;;4976201;28;20539;-76
2023/06/29 07:41:15;;;;;;;57.33;51.50;;;20.30;99.90;;;;;;4960806;28;20121;-76
2023/06/29 07:43:45;;;;;;;57.42;51.88;;;20.40;99.90;;;;;;4965064;28;20043;-76
2023/06/29 07:46:11;;;;;;;58.78;52.97;;;20.40;99.90;;;;;;4971242;28;20038;-76
2023/06/29 07:48:36;;;;;;;59.75;54.03;;;20.60;99.90;;;;;;4975810;28;20065;-76
2023/06/29 07:51:03;;;;;;;55.65;50.17;;;20.60;99.90;;;;;;4976134;28;20034;-76
2023/06/29 07:53:29;;;;;;;57.05;51.45;;;20.70;99.90;;;;;;4976316;28;20046;-76
2023/06/29 07:55:55;;;;;;;56.17;50.88;;;20.80;99.90;;;;;;4976044;28;20105;-76
2023/06/29 07:58:21;;;;;;;54.20;49.15;;;20.90;99.90;;;;;;4955257;28;20484;-76
2023/06/29 08:00:46;;;;;;;55.13;49.97;;;21.10;99.90;;;;;;4975837;28;20038;-76
2023/06/29 08:03:12;;;;;;;55.60;50.25;;;21.20;99.90;;;;;;4975805;28;20046;-76
2023/06/29 08:05:37;;;;;;;52.45;47.42;;;21.40;99.90;;;;;;4961872;28;20047;-76
2023/06/29 08:08:03;;;;;;;51.60;46.50;;;21.50;99.90;;;;;;4952088;28;20101;-76
2023/06/29 08:10:29;;;;;;;53.60;48.55;;;21.70;99.90;;;;;;4975775;28;20074;-76
2023/06/29 08:12:54;;;;;;;53.53;48.42;;;21.90;99.90;;;;;;4974447;28;20042;-76
2023/06/29 08:15:21;;;;;;;52.08;47.25;;;22.00;99.90;;;;;;4972809;28;20412;-76
2023/06/29 08:17:47;;;;;;;52.45;47.45;;;22.00;99.90;;;;;;4975327;28;20049;-76
2023/06/29 08:20:12;;;;;;;48.95;44.53;;;22.10;99.90;;;;;;4975439;28;20122;-76
2023/06/29 08:22:39;;;;;;;47.67;43.25;;;22.20;99.90;;;;;;4975491;28;20126;-76
2023/06/29 08:25:05;;;;;;;45.80;41.60;;;22.30;99.90;;;;;;4972666;28;20057;-76
2023/06/29 08:27:31;;;;;;;47.38;42.80;;;22.30;99.90;;;;;;4975118;28;20073;-76
2023/06/29 08:29:56;;;;;;;49.35;44.65;;;22.30;99.90;;;;;;4971848;28;20065;-76
2023/06/29 08:32:22;;;;;;;48.28;43.63;;;22.30;99.90;;;;;;4957214;28;20408;-76
2023/06/29 08:34:48;;;;;;;46.85;42.45;;;22.30;99.90;;;;;;4975360;28;20038;-76
2023/06/29 08:37:13;;;;;;;49.88;45.08;;;22.30;99.90;;;;;;4975094;28;20038;-76
2023/06/29 08:39:39;;;;;;;46.55;42.15;;;22.20;99.90;;;;;;4967699;28;20420;-76
2023/06/29 08:42:05;;;;;;;45.80;41.47;;;22.20;99.90;;;;;;4967999;28;20042;-76
2023/06/29 08:44:31;;;;;;;45.25;40.72;;;22.10;99.90;;;;;;4975034;28;20050;-76
2023/06/29 08:47:00;;;;;;;46.65;42.35;;;22.00;99.90;;;;;;4959137;28;20046;-76
2023/06/29 08:49:27;;;;;;;43.85;39.45;;;21.90;99.90;;;;;;4958941;28;20106;-76
2023/06/29 08:51:59;;;;;;;43.60;39.50;;;21.90;99.90;;;;;;4975367;28;20466;-76
2023/06/29 08:54:31;;;;;;;44.13;39.92;;;21.80;99.90;;;;;;4971104;28;20046;-76
2023/06/29 08:57:00;;;;;;;43.97;39.40;;;21.80;99.90;;;;;;4961954;28;20096;-76
2023/06/29 08:59:27;;;;;;;43.08;38.88;;;21.70;99.90;;;;;;4969299;28;20062;-76
2023/06/29 09:01:53;;;;;;;43.63;39.60;;;21.60;99.90;;;;;;4974852;28;20129;-76
2023/06/29 09:04:20;;;;;;;44.40;40.22;;;21.50;99.90;;;;;;4975219;28;20042;-76
2023/06/29 09:06:46;;;;;;;43.70;39.70;;;21.50;99.90;;;;;;4974787;28;20043;-77
2023/06/29 09:09:12;;;;;;;41.90;37.85;;;21.40;99.90;;;;;;4972476;28;20073;-76
2023/06/29 09:11:38;;;;;;;39.72;36.03;;;21.30;99.90;;;;;;4960572;28;20489;-76
2023/06/29 09:14:07;;;;;;;38.55;34.85;;;21.30;99.90;;;;;;4963348;28;20053;-76
2023/06/29 09:16:36;;;;;;;40.28;36.55;;;21.30;99.90;;;;;;4952226;28;20030;-76
2023/06/29 09:19:03;;;;;;;40.40;36.55;;;21.10;99.90;;;;;;4934589;28;20034;-76
2023/06/29 09:21:29;;;;;;;39.47;35.70;;;21.20;99.90;;;;;;4963133;28;20121;-76
2023/06/29 09:23:58;;;;;;;40.38;36.53;;;21.20;99.90;;;;;;4974816;28;20049;-76
2023/06/29 09:26:28;;;;;;;38.78;35.08;;;21.40;99.90;;;;;;4974501;28;20085;-76
2023/06/29 09:28:59;;;;;;;40.40;36.50;;;21.60;99.90;;;;;;4973717;28;20038;-76
2023/06/29 09:31:32;;;;;;;38.92;35.25;;;21.70;99.90;;;;;;4972760;28;20082;-76
2023/06/29 09:34:19;;;;;;;38.75;35.13;;;21.90;99.90;;;;;;4974765;28;20081;-76
2023/06/29 09:36:45;;;;;;;38.38;34.67;;;22.10;99.90;;;;;;4974478;28;20042;-76
2023/06/29 09:39:12;;;;;;;39.75;36.15;;;22.10;99.90;;;;;;4958486;28;20045;-77
2023/06/29 09:41:48;;;;;;;37.80;34.40;;;22.20;99.90;;;;;;4974631;28;20049;-76
2023/06/29 09:44:19;;;;;;;39.92;36.33;;;22.20;99.90;;;;;;4971913;28;20054;-76
2023/06/29 09:46:48;;;;;;;37.35;33.88;;;22.30;99.90;;;;;;4969733;28;20042;-76
2023/06/29 09:49:14;;;;;;;39.17;35.65;;;22.40;99.90;;;;;;4970106;28;20051;-76
2023/06/29 09:51:41;;;;;;;39.65;35.95;;;22.40;99.90;;;;;;4978086;28;20176;-76
2023/06/29 09:54:13;;;;;;;38.42;34.72;;;22.50;99.90;;;;;;4978247;28;20035;-76
2023/06/29 09:56:40;;;;;;;38.67;35.00;;;22.50;99.90;;;;;;4977888;28;20038;-76
2023/06/29 09:59:09;;;;;;;38.92;35.25;;;22.40;99.90;;;;;;4971932;28;20343;-77
2023/06/29 10:01:35;;;;;;;39.25;35.72;;;22.40;99.90;;;;;;4946693;28;20543;-76
2023/06/29 10:04:02;;;;;;;39.92;36.05;;;22.40;99.90;;;;;;4978053;28;20052;-76
2023/06/29 10:06:40;;;;;;;39.42;35.63;;;22.40;99.90;;;;;;4977706;28;20054;-76
2023/06/29 10:09:07;;;;;;;38.58;35.00;;;22.40;99.90;;;;;;4977970;28;20042;-76
2023/06/29 10:11:36;;;;;;;38.72;35.13;;;22.40;99.90;;;;;;4961781;28;20412;-77
2023/06/29 10:14:04;;;;;;;39.35;35.55;;;22.50;99.90;;;;;;4958870;28;20046;-76
2023/06/29 10:16:34;;;;;;;37.58;33.88;;;22.80;99.90;;;;;;4970043;28;20442;-77
2023/06/29 10:19:14;;;;;;;38.28;34.58;;;23.00;99.90;;;;;;4977912;28;20038;-77
2023/06/29 10:21:43;;;;;;;38.70;34.97;;;23.10;99.90;;;;;;4977840;28;20044;-76
2023/06/29 10:24:10;;;;;;;38.80;35.28;;;23.20;99.90;;;;;;4967861;28;20042;-77
2023/06/29 10:26:38;;;;;;;38.30;34.67;;;23.30;99.90;;;;;;4977306;28;20085;-77
2023/06/29 10:29:03;;;;;;;38.13;34.53;;;23.30;99.90;;;;;;4977673;28;20377;-77
2023/06/29 10:31:33;;;;;;;38.80;35.20;;;23.30;99.90;;;;;;4977483;28;20097;-77
2023/06/29 10:33:59;;;;;;;38.72;35.03;;;23.30;99.90;;;;;;4977543;28;20084;-77
2023/06/29 10:36:25;;;;;;;38.88;35.28;;;23.40;99.90;;;;;;4961203;28;20078;-77
2023/06/29 10:38:51;;;;;;;38.80;35.13;;;23.50;99.90;;;;;;4968140;28;20523;-77
2023/06/29 10:41:27;;;;;;;38.35;34.85;;;23.70;99.90;;;;;;4961192;28;20042;-77
2023/06/29 10:44:01;;;;;;;39.45;35.75;;;23.90;99.90;;;;;;4977385;28;20489;-77
2023/06/29 10:46:46;;;;;;;39.50;35.80;;;24.30;99.90;;;;;;4977190;28;20141;-77
2023/06/29 10:49:28;;;;;;;37.85;34.45;;;24.80;99.90;;;;;;4957388;28;20046;-77
2023/06/29 10:52:04;;;;;;;38.53;35.00;;;25.30;99.90;;;;;;4967199;28;20042;-77
2023/06/29 10:54:30;;;;;;;38.60;35.00;;;25.60;99.90;;;;;;4960322;28;20104;-77
2023/06/29 10:57:01;;;;;;;38.95;35.42;;;25.60;99.90;;;;;;4977402;28;20358;-77
2023/06/29 10:59:28;;;;;;;38.03;34.63;;;25.60;99.90;;;;;;4977041;28;20038;-77
2023/06/29 11:01:54;;;;;;;38.92;35.28;;;25.70;99.90;;;;;;4969470;28;20054;-76
2023/06/29 11:04:21;;;;;;;37.33;33.85;;;26.00;99.90;;;;;;4961032;28;20039;-76
2023/06/29 11:06:47;;;;;;;35.85;32.75;;;26.60;99.90;;;;;;4976917;28;20100;-76
2023/06/29 11:09:13;;;;;;;35.55;32.40;;;27.20;99.90;;;;;;4976822;28;20282;-76
2023/06/29 11:11:41;;;;;;;34.25;31.17;;;27.40;99.90;;;;;;4977035;28;20448;-76
2023/06/29 11:14:09;;;;;;;32.80;29.90;;;27.50;99.90;;;;;;4976829;28;20122;-76
2023/06/29 11:16:37;;;;;;;31.63;28.73;;;27.50;99.90;;;;;;4950777;28;20038;-76
2023/06/29 11:19:02;;;;;;;32.65;29.80;;;27.40;99.90;;;;;;4976758;28;20436;-76
2023/06/29 11:21:29;;;;;;;31.45;28.70;;;27.60;99.90;;;;;;4976554;28;20045;-76
2023/06/29 11:23:54;;;;;;;32.78;29.88;;;27.80;99.90;;;;;;4976548;28;20046;-76
2023/06/29 11:26:20;;;;;;;36.00;32.78;;;27.80;99.90;;;;;;4967614;28;20049;-76
2023/06/29 11:28:50;;;;;;;33.83;30.92;;;27.90;99.90;;;;;;4976400;28;20049;-76
2023/06/29 11:31:16;;;;;;;33.88;30.67;;;28.00;99.90;;;;;;4976368;28;20562;-76
2023/06/29 11:33:52;;;;;;;33.20;30.13;;;28.20;99.90;;;;;;4960241;28;20117;-76
2023/06/29 11:36:28;;;;;;;35.30;32.22;;;28.30;99.90;;;;;;4948153;28;20046;-77
2023/06/29 11:39:03;;;;;;;34.60;31.48;;;28.60;99.90;;;;;;4960164;28;20042;-76
2023/06/29 11:41:33;;;;;;;32.92;29.98;;;29.20;99.90;;;;;;4960192;28;20049;-77
2023/06/29 11:44:00;;;;;;;31.58;28.67;;;29.60;99.90;;;;;;4976163;28;20559;-77
2023/06/29 11:46:26;;;;;;;32.67;29.77;;;29.80;99.90;;;;;;4975994;28;20101;-76
2023/06/29 11:48:56;;;;;;;34.53;31.55;;;30.00;99.90;;;;;;4971510;28;20047;-77
2023/06/29 11:51:25;;;;;;;32.78;29.77;;;30.10;99.90;;;;;;4974506;28;20393;-77
2023/06/29 11:53:55;;;;;;;35.08;31.67;;;30.10;99.90;;;;;;4959750;28;20053;-77
2023/06/29 11:56:33;;;;;;;34.90;31.73;;;30.30;99.90;;;;;;4975778;28;20042;-77
2023/06/29 11:59:07;;;;;;;35.08;31.67;;;30.30;99.90;;;;;;4976143;28;20046;-77
2023/06/29 12:01:35;;;;;;;34.10;30.95;;;30.20;99.90;;;;;;4963390;28;20046;-77
2023/06/29 12:04:03;;;;;;;34.33;31.05;;;30.10;99.90;;;;;;4967533;28;20135;-77
2023/06/29 12:06:28;;;;;;;34.78;31.58;;;30.10;99.90;;;;;;4974603;28;20496;-76
2023/06/29 12:08:54;;;;;;;31.40;28.50;;;30.20;99.90;;;;;;4967524;28;20045;-77
2023/06/29 12:11:19;;;;;;;31.73;28.83;;;30.10;98.90;;;;;;4973732;28;20069;-77
2023/06/29 12:13:47;;;;;;;31.85;28.92;;;29.80;98.30;;;;;;4975591;28;20041;-76
2023/06/29 12:16:13;;;;;;;33.35;30.40;;;29.50;99.90;;;;;;4970925;28;20045;-76
2023/06/29 12:18:40;;;;;;;33.95;30.77;;;29.20;99.90;;;;;;4975491;28;20042;-76
2023/06/29 12:21:06;;;;;;;34.30;31.30;;;28.80;99.90;;;;;;4975801;28;20058;-76
2023/06/29 12:23:32;;;;;;;33.90;30.73;;;28.60;99.90;;;;;;4946554;28;20038;-77
2023/06/29 12:25:57;;;;;;;35.22;32.10;;;28.40;99.90;;;;;;4975417;28;20073;-76
2023/06/29 12:28:23;;;;;;;35.88;32.78;;;28.20;99.90;;;;;;4975693;28;20132;-76
2023/06/29 12:30:48;;;;;;;36.13;32.92;;;28.00;99.90;;;;;;4972646;28;20477;-76
2023/06/29 12:33:14;;;;;;;36.80;33.50;;;27.70;99.90;;;;;;4966602;28;20105;-76
2023/06/29 12:35:41;;;;;;;35.08;32.08;;;27.50;99.90;;;;;;4975130;28;20485;-76
2023/06/29 12:38:07;;;;;;;33.75;30.67;;;27.20;99.90;;;;;;4974989;28;20126;-76
2023/06/29 12:40:33;;;;;;;36.05;32.75;;;26.90;99.90;;;;;;4973293;28;20121;-76
2023/06/29 12:43:03;;;;;;;36.30;33.15;;;26.70;99.90;;;;;;4975107;28;20081;-76
2023/06/29 12:45:28;;;;;;;35.58;32.38;;;26.50;99.90;;;;;;4959099;28;20038;-76
2023/06/29 12:47:54;;;;;;;35.83;32.65;;;26.50;99.90;;;;;;4966042;28;20085;-76
2023/06/29 12:50:19;;;;;;;36.38;33.10;;;26.50;99.90;;;;;;4974724;28;20065;-76